createdAt,value
2023-09-11T00:01:02.398Z,3.78
2023-09-11T00:03:30.273Z,3.97
2023-09-11T00:06:07.781Z,3.60
2023-09-11T00:08:36.127Z,3.33
2023-09-11T00:11:04.816Z,3.85
2023-09-11T00:13:32.998Z,2.80
2023-09-11T00:16:00.932Z,4.10
2023-09-11T00:18:28.700Z,3.60
2023-09-11T00:20:56.454Z,3.60
2023-09-11T00:23:24.248Z,3.28
2023-09-11T00:25:51.936Z,3.90
2023-09-11T00:28:19.782Z,3.60
2023-09-11T00:30:47.438Z,3.23
2023-09-11T00:33:15.264Z,3.53
2023-09-11T00:35:46.786Z,3.08
2023-09-11T00:38:14.590Z,3.25
2023-09-11T00:40:42.237Z,4.32
2023-09-11T00:43:09.849Z,3.73
2023-09-11T00:45:37.822Z,3.90
2023-09-11T00:48:06.216Z,3.88
2023-09-11T00:50:34.395Z,4.10
2023-09-11T00:53:04.192Z,4.47
2023-09-11T00:55:31.989Z,3.93
2023-09-11T00:57:59.679Z,3.70
2023-09-11T01:00:27.809Z,4.00
2023-09-11T01:02:55.923Z,3.97
2023-09-11T01:05:24.187Z,3.70
2023-09-11T01:07:52.018Z,3.93
2023-09-11T01:10:19.780Z,3.45
2023-09-11T01:12:47.700Z,3.90
2023-09-11T01:15:15.330Z,3.85
2023-09-11T01:18:08.608Z,3.95
2023-09-11T01:20:51.226Z,4.00
2023-09-11T01:23:50.129Z,4.28
2023-09-11T01:27:07.639Z,3.90
2023-09-11T01:29:35.920Z,3.88
2023-09-11T01:32:06.556Z,3.85
2023-09-11T01:34:34.248Z,4.07
2023-09-11T01:37:01.901Z,3.97
2023-09-11T01:39:29.789Z,3.90
2023-09-11T01:42:01.922Z,4.03
2023-09-11T01:44:44.882Z,4.20
2023-09-11T01:47:17.343Z,3.70
2023-09-11T01:49:47.069Z,3.78
2023-09-11T01:52:16.869Z,3.92
2023-09-11T01:54:44.862Z,4.22
2023-09-11T01:57:12.597Z,4.00
2023-09-11T01:59:40.274Z,3.60
2023-09-11T02:02:07.923Z,3.63
2023-09-11T02:04:35.650Z,3.70
2023-09-11T02:07:03.369Z,4.13
2023-09-11T02:09:31.079Z,3.85
2023-09-11T02:11:59.570Z,4.10
2023-09-11T02:14:29.197Z,3.83
2023-09-11T02:17:04.121Z,3.78
2023-09-11T02:19:33.140Z,3.70
2023-09-11T02:22:01.645Z,3.92
2023-09-11T02:24:29.298Z,4.00
2023-09-11T02:26:58.221Z,4.07
2023-09-11T02:29:26.270Z,4.00
2023-09-11T02:31:54.281Z,4.25
2023-09-11T02:34:22.273Z,3.97
2023-09-11T02:36:50.093Z,3.80
2023-09-11T02:39:18.026Z,4.32
2023-09-11T02:41:45.964Z,4.20
2023-09-11T02:44:13.870Z,4.22
2023-09-11T02:46:41.811Z,4.07
2023-09-11T02:49:09.826Z,4.50
2023-09-11T02:51:37.818Z,4.40
2023-09-11T02:54:05.922Z,4.20
2023-09-11T02:56:35.757Z,3.92
2023-09-11T02:59:03.753Z,4.75
2023-09-11T03:01:31.668Z,3.77
2023-09-11T03:03:59.546Z,4.10
2023-09-11T03:06:27.574Z,4.10
2023-09-11T03:08:58.167Z,4.50
2023-09-11T03:11:26.309Z,4.35
2023-09-11T03:13:54.315Z,4.40
2023-09-11T03:16:22.146Z,3.97
2023-09-11T03:18:50.170Z,4.60
2023-09-11T03:21:18.170Z,5.15
2023-09-11T03:23:46.464Z,4.72
2023-09-11T03:26:18.230Z,4.63
2023-09-11T03:28:52.817Z,4.63
2023-09-11T03:31:20.999Z,4.68
2023-09-11T03:33:49.285Z,4.90
2023-09-11T03:36:18.646Z,4.80
2023-09-11T03:38:46.982Z,4.33
2023-09-11T03:41:15.801Z,4.75
2023-09-11T03:43:43.700Z,4.70
2023-09-11T03:46:14.032Z,4.85
2023-09-11T03:48:42.905Z,5.00
2023-09-11T03:51:11.182Z,4.57
2023-09-11T03:53:44.479Z,4.32
2023-09-11T03:56:16.089Z,4.93
2023-09-11T03:58:47.547Z,4.47
2023-09-11T04:01:15.438Z,4.10
2023-09-11T04:03:44.535Z,5.13
2023-09-11T04:06:12.764Z,5.03
2023-09-11T04:08:40.774Z,3.97
2023-09-11T04:11:08.728Z,5.00
2023-09-11T04:13:36.759Z,5.25
2023-09-11T04:16:04.916Z,4.90
2023-09-11T04:18:33.038Z,4.72
2023-09-11T04:21:05.082Z,4.88
2023-09-11T04:23:33.073Z,5.03
2023-09-11T04:26:01.389Z,4.82
2023-09-11T04:28:29.366Z,5.00
2023-09-11T04:30:57.309Z,5.10
2023-09-11T04:33:25.219Z,5.50
2023-09-11T04:35:53.056Z,4.68
2023-09-11T04:38:20.960Z,5.35
2023-09-11T04:40:48.584Z,4.87
2023-09-11T04:43:16.366Z,4.50
2023-09-11T04:45:44.104Z,6.18
2023-09-11T04:48:11.815Z,5.50
2023-09-11T04:50:39.633Z,5.43
2023-09-11T04:53:07.382Z,5.77
2023-09-11T04:55:35.025Z,6.05
2023-09-11T04:58:02.710Z,6.65
2023-09-11T05:00:31.903Z,7.20
2023-09-11T05:02:59.837Z,6.75
2023-09-11T05:05:27.766Z,6.07
2023-09-11T05:07:55.997Z,6.32
2023-09-11T05:10:23.588Z,6.32
2023-09-11T05:12:51.214Z,5.90
2023-09-11T05:15:18.916Z,6.57
2023-09-11T05:17:46.585Z,4.87
2023-09-11T05:20:14.319Z,5.88
2023-09-11T05:22:42.027Z,5.38
2023-09-11T05:25:10.422Z,4.93
2023-09-11T05:27:38.306Z,5.20
2023-09-11T05:30:06.876Z,5.80
2023-09-11T05:32:35.344Z,5.80
2023-09-11T05:35:04.042Z,5.47
2023-09-11T05:37:32.100Z,5.47
2023-09-11T05:40:01.972Z,5.47
2023-09-11T05:42:30.341Z,6.13
2023-09-11T05:44:58.331Z,5.68
2023-09-11T05:47:26.534Z,5.07
2023-09-11T05:49:54.478Z,6.18
2023-09-11T05:52:22.315Z,5.72
2023-09-11T05:54:50.201Z,5.17
2023-09-11T05:57:18.150Z,5.45
2023-09-11T05:59:47.461Z,5.30
2023-09-11T06:02:15.578Z,5.57
2023-09-11T06:04:43.653Z,5.85
2023-09-11T06:07:12.836Z,5.30
2023-09-11T06:09:41.001Z,5.97
2023-09-11T06:12:09.267Z,5.57
2023-09-11T06:14:40.088Z,4.50
2023-09-11T06:17:07.926Z,4.80
2023-09-11T06:19:39.735Z,5.23
2023-09-11T06:22:07.780Z,5.45
2023-09-11T06:24:35.690Z,4.30
2023-09-11T06:27:08.443Z,7.15
2023-09-11T06:29:36.537Z,4.07
2023-09-11T06:32:05.011Z,8.60
2023-09-11T06:34:33.236Z,5.28
2023-09-11T06:37:01.235Z,4.68
2023-09-11T06:39:29.949Z,5.05
2023-09-11T06:41:57.948Z,4.65
2023-09-11T06:44:25.785Z,3.90
2023-09-11T06:46:54.035Z,3.95
2023-09-11T06:49:22.258Z,4.80
2023-09-11T06:51:51.186Z,4.53
2023-09-11T06:54:19.095Z,4.00
2023-09-11T06:56:48.535Z,4.60
2023-09-11T06:59:16.524Z,4.22
2023-09-11T07:01:44.508Z,3.70
2023-09-11T07:04:12.904Z,4.10
2023-09-11T07:06:41.996Z,4.75
2023-09-11T07:09:10.451Z,2.87
2023-09-11T07:11:38.731Z,5.68
2023-09-11T07:14:10.265Z,7.10
2023-09-11T07:16:38.159Z,14.52
2023-09-11T07:19:06.153Z,11.50
2023-09-11T07:21:34.126Z,4.60
2023-09-11T07:24:02.010Z,5.03
2023-09-11T07:26:30.295Z,5.18
2023-09-11T07:29:02.650Z,4.60
2023-09-11T07:31:32.737Z,4.20
2023-09-11T07:34:01.149Z,4.87
2023-09-11T07:36:30.756Z,11.23
2023-09-11T07:38:58.961Z,5.55
2023-09-11T07:41:26.914Z,5.45
2023-09-11T07:43:55.794Z,5.50
2023-09-11T07:46:27.431Z,5.13
2023-09-11T07:48:58.549Z,5.45
2023-09-11T07:51:28.033Z,5.63
2023-09-11T07:53:55.949Z,6.88
2023-09-11T07:56:24.205Z,5.53
2023-09-11T07:58:52.063Z,5.60
2023-09-11T08:01:20.196Z,5.47
2023-09-11T08:03:49.100Z,6.20
2023-09-11T08:06:17.179Z,5.30
2023-09-11T08:08:45.157Z,5.78
2023-09-11T08:11:18.072Z,7.47
2023-09-11T08:13:51.631Z,6.00
2023-09-11T08:16:19.732Z,7.13
2023-09-11T08:18:47.874Z,5.80
2023-09-11T08:21:18.249Z,6.05
2023-09-11T08:23:46.262Z,6.30
2023-09-11T08:26:18.949Z,5.90
2023-09-11T08:28:46.869Z,6.32
2023-09-11T08:31:14.575Z,6.47
2023-09-11T08:36:16.203Z,5.83
2023-09-11T08:38:46.336Z,5.25
2023-09-11T08:41:18.852Z,6.00
2023-09-11T08:43:46.608Z,6.10
2023-09-11T08:46:19.792Z,6.63
2023-09-11T08:48:50.890Z,5.70
2023-09-11T08:51:24.405Z,8.73
2023-09-11T08:53:56.316Z,8.13
2023-09-11T08:56:24.503Z,9.43
2023-09-11T08:58:53.621Z,9.23
2023-09-11T09:01:22.728Z,6.67
2023-09-11T09:03:53.628Z,9.70
2023-09-11T09:06:21.629Z,8.70
2023-09-11T09:08:49.888Z,7.97
2023-09-11T09:11:18.308Z,10.13
2023-09-11T09:13:45.987Z,12.20
2023-09-11T09:16:13.792Z,11.65
2023-09-11T09:18:49.758Z,11.27
2023-09-11T09:21:19.299Z,11.55
2023-09-11T09:23:47.042Z,13.10
2023-09-11T09:26:15.905Z,12.60
2023-09-11T09:28:48.964Z,10.27
2023-09-11T09:31:26.754Z,9.57
2023-09-11T09:33:57.629Z,10.50
2023-09-11T09:36:29.859Z,6.80
2023-09-11T09:38:58.559Z,6.63
2023-09-11T09:41:26.414Z,8.98
2023-09-11T09:43:56.085Z,6.60
2023-09-11T09:46:24.690Z,7.28
2023-09-11T09:48:53.288Z,7.30
2023-09-11T09:51:22.814Z,6.30
2023-09-11T09:53:55.123Z,6.15
2023-09-11T09:56:23.326Z,7.93
2023-09-11T09:58:52.690Z,6.47
2023-09-11T10:01:23.889Z,5.28
2023-09-11T10:03:55.084Z,6.60
2023-09-11T10:06:28.245Z,6.10
2023-09-11T10:09:11.922Z,6.35
2023-09-11T10:11:43.051Z,6.35
2023-09-11T10:14:12.705Z,5.40
2023-09-11T10:16:47.544Z,5.73
2023-09-11T10:19:18.578Z,7.80
2023-09-11T10:21:47.648Z,5.75
2023-09-11T10:24:16.375Z,8.82
2023-09-11T10:26:53.134Z,6.55
2023-09-11T10:29:50.677Z,5.83
2023-09-11T10:32:27.594Z,6.45
2023-09-11T10:34:55.487Z,8.65
2023-09-11T10:37:23.445Z,10.77
2023-09-11T10:39:53.165Z,8.27
2023-09-11T10:42:21.045Z,7.20
2023-09-11T10:44:48.810Z,8.73
2023-09-11T10:47:17.011Z,7.88
2023-09-11T10:49:51.209Z,8.20
2023-09-11T10:52:19.057Z,7.43
2023-09-11T10:54:48.790Z,8.60
2023-09-11T10:57:16.490Z,10.55
2023-09-11T10:59:44.251Z,10.50
2023-09-11T11:02:12.124Z,10.50
2023-09-11T11:04:41.169Z,10.00
2023-09-11T11:07:09.550Z,9.90
2023-09-11T11:09:42.374Z,11.45
2023-09-11T11:12:14.844Z,11.73
2023-09-11T11:14:43.244Z,12.25
2023-09-11T11:17:12.881Z,10.73
2023-09-11T11:20:02.153Z,10.40
2023-09-11T11:22:36.137Z,11.95
2023-09-11T11:25:08.936Z,12.88
2023-09-11T11:27:39.596Z,12.98
2023-09-11T11:30:08.018Z,11.70
2023-09-11T11:32:41.036Z,12.63
2023-09-11T11:35:11.198Z,14.25
2023-09-11T11:37:45.577Z,14.43
2023-09-11T11:40:15.005Z,15.18
2023-09-11T11:42:43.033Z,16.23
2023-09-11T11:45:11.623Z,14.30
2023-09-11T11:47:39.563Z,12.65
2023-09-11T11:50:14.208Z,13.95
2023-09-11T11:52:50.849Z,13.55
2023-09-11T11:55:22.902Z,13.45
2023-09-11T11:57:53.829Z,13.37
2023-09-11T12:00:30.426Z,14.52
2023-09-11T12:03:05.689Z,13.98
2023-09-11T12:05:33.761Z,14.07
2023-09-11T12:08:03.313Z,13.60
2023-09-11T12:10:32.870Z,12.40
2023-09-11T12:13:00.625Z,13.65
2023-09-11T12:15:30.405Z,13.07
2023-09-11T12:17:59.689Z,13.18
2023-09-11T12:20:27.375Z,14.18
2023-09-11T12:22:55.057Z,14.43
2023-09-11T12:25:22.905Z,13.65
2023-09-11T12:27:51.735Z,13.13
2023-09-11T12:30:20.446Z,14.00
2023-09-11T12:32:48.595Z,13.23
2023-09-11T12:35:31.370Z,11.70
2023-09-11T12:37:59.316Z,12.10
2023-09-11T12:40:27.288Z,13.38
2023-09-11T12:42:56.190Z,12.50
2023-09-11T12:45:24.249Z,13.13
2023-09-11T12:47:52.690Z,13.17
2023-09-11T12:50:22.862Z,13.15
2023-09-11T12:52:51.828Z,13.15
2023-09-11T12:55:21.652Z,12.48
2023-09-11T12:57:53.256Z,12.18
2023-09-11T13:00:31.973Z,12.67
2023-09-11T13:03:05.006Z,11.77
2023-09-11T13:05:34.255Z,9.60
2023-09-11T13:08:10.289Z,12.15
2023-09-11T13:10:38.359Z,13.75
2023-09-11T13:13:08.306Z,13.50
2023-09-11T13:15:37.670Z,12.43
2023-09-11T13:18:05.827Z,13.93
2023-09-11T13:20:33.817Z,12.30
2023-09-11T13:23:03.693Z,12.18
2023-09-11T13:25:31.660Z,12.70
2023-09-11T13:27:59.634Z,12.23
2023-09-11T13:30:27.609Z,10.60
2023-09-11T13:32:55.409Z,11.05
2023-09-11T13:35:23.104Z,12.43
2023-09-11T13:37:51.005Z,10.70
2023-09-11T13:40:18.667Z,11.15
2023-09-11T13:42:47.294Z,10.10
2023-09-11T13:45:16.850Z,11.25
2023-09-11T13:47:44.989Z,11.10
2023-09-11T13:50:13.364Z,11.27
2023-09-11T13:52:41.145Z,10.98
2023-09-11T13:55:09.449Z,10.15
2023-09-11T13:57:37.328Z,10.00
2023-09-11T14:00:07.267Z,10.40
2023-09-11T14:02:36.378Z,9.57
2023-09-11T14:05:04.955Z,8.80
2023-09-11T14:07:32.851Z,8.23
2023-09-11T14:10:07.496Z,8.20
2023-09-11T14:12:37.680Z,5.65
2023-09-11T14:15:05.786Z,6.90
2023-09-11T14:17:33.393Z,7.30
2023-09-11T14:20:01.175Z,8.50
2023-09-11T14:22:28.830Z,11.32
2023-09-11T14:24:56.606Z,7.68
2023-09-11T14:27:24.604Z,7.27
2023-09-11T14:29:52.548Z,7.60
2023-09-11T14:32:25.081Z,5.80
2023-09-11T14:34:55.044Z,6.03
2023-09-11T14:37:23.895Z,6.88
2023-09-11T14:39:52.448Z,6.70
2023-09-11T14:42:20.440Z,6.95
2023-09-11T14:44:48.293Z,8.00
2023-09-11T14:47:16.665Z,6.65
2023-09-11T14:49:47.717Z,6.50
2023-09-11T14:52:15.692Z,6.33
2023-09-11T14:54:53.800Z,7.25
2023-09-11T14:57:23.666Z,6.57
2023-09-11T14:59:52.061Z,5.43
2023-09-11T15:02:22.644Z,6.68
2023-09-11T15:04:52.605Z,5.50
2023-09-11T15:07:21.425Z,5.68
2023-09-11T15:09:52.778Z,5.45
2023-09-11T15:12:20.812Z,5.57
2023-09-11T15:14:52.317Z,5.93
2023-09-11T15:17:20.337Z,5.03
2023-09-11T15:19:48.430Z,6.03
2023-09-11T15:22:16.378Z,4.88
2023-09-11T15:24:44.437Z,4.28
2023-09-11T15:27:13.082Z,4.97
2023-09-11T15:29:41.605Z,5.37
2023-09-11T15:32:12.635Z,5.38
2023-09-11T15:34:42.895Z,5.38
2023-09-11T15:37:17.101Z,4.35
2023-09-11T15:39:45.327Z,5.03
2023-09-11T15:42:13.451Z,4.13
2023-09-11T15:44:41.657Z,4.78
2023-09-11T15:47:09.573Z,4.70
2023-09-11T15:49:38.299Z,4.85
2023-09-11T15:52:06.740Z,5.57
2023-09-11T15:54:35.042Z,4.90
2023-09-11T15:57:03.099Z,5.55
2023-09-11T15:59:31.286Z,5.47
2023-09-11T16:01:59.778Z,5.90
2023-09-11T16:04:27.857Z,5.63
2023-09-11T16:06:57.317Z,4.70
2023-09-11T16:09:25.149Z,5.03
2023-09-11T16:11:54.374Z,5.40
2023-09-11T16:14:22.428Z,4.80
2023-09-11T16:16:51.943Z,6.03
2023-09-11T16:19:23.132Z,4.40
2023-09-11T16:21:51.784Z,4.32
2023-09-11T16:24:19.819Z,4.82
2023-09-11T16:26:47.888Z,4.40
2023-09-11T16:29:15.993Z,4.90
2023-09-11T16:31:43.915Z,4.23
2023-09-11T16:34:12.109Z,4.53
2023-09-11T16:36:41.018Z,4.05
2023-09-11T16:39:08.990Z,3.50
2023-09-11T16:41:37.011Z,4.20
2023-09-11T16:44:05.394Z,3.57
2023-09-11T16:46:33.355Z,3.80
2023-09-11T16:49:01.461Z,4.00
2023-09-11T16:51:29.495Z,4.10
2023-09-11T16:53:57.511Z,3.67
2023-09-11T16:56:26.367Z,3.70
2023-09-11T16:58:54.431Z,3.70
2023-09-11T17:01:22.570Z,3.80
2023-09-11T17:03:50.588Z,3.92
2023-09-11T17:06:18.546Z,3.80
2023-09-11T17:08:46.470Z,3.00
2023-09-11T17:11:14.667Z,2.92
2023-09-11T17:13:46.616Z,3.70
2023-09-11T17:16:14.610Z,3.30
2023-09-11T17:18:48.075Z,4.60
2023-09-11T17:21:16.376Z,3.87
2023-09-11T17:23:44.502Z,3.88
2023-09-11T17:26:14.101Z,3.80
2023-09-11T17:28:42.278Z,3.10
2023-09-11T17:31:10.279Z,3.00
2023-09-11T17:33:38.030Z,2.80
2023-09-11T17:36:06.021Z,3.35
2023-09-11T17:38:33.857Z,3.38
2023-09-11T17:41:01.606Z,2.85
2023-09-11T17:43:30.227Z,3.60
2023-09-11T17:46:01.575Z,3.23
2023-09-11T17:48:29.384Z,4.07
2023-09-11T17:50:57.004Z,2.97
2023-09-11T17:53:24.645Z,3.15
2023-09-11T17:55:52.267Z,3.30
2023-09-11T17:58:19.845Z,2.70
2023-09-11T18:00:47.491Z,3.00
2023-09-11T18:03:15.505Z,4.15
2023-09-11T18:05:43.355Z,1.98
2023-09-11T18:08:11.126Z,1.83
2023-09-11T18:10:38.983Z,3.70
2023-09-11T18:13:06.699Z,3.03
2023-09-11T18:15:34.467Z,3.03
2023-09-11T18:18:02.204Z,2.70
2023-09-11T18:20:30.023Z,2.30
2023-09-11T18:23:03.557Z,2.40
2023-09-11T18:25:31.677Z,2.95
2023-09-11T18:27:59.544Z,3.05
2023-09-11T18:30:27.459Z,3.67
2023-09-11T18:32:56.450Z,3.15
2023-09-11T18:35:24.413Z,2.70
2023-09-11T18:37:52.476Z,2.60
2023-09-11T18:40:20.514Z,2.60
2023-09-11T18:42:48.424Z,2.28
2023-09-11T18:45:16.426Z,2.08
2023-09-11T18:47:44.561Z,2.43
2023-09-11T18:50:12.567Z,2.70
2023-09-11T18:52:43.401Z,2.90
2023-09-11T18:55:11.830Z,3.10
2023-09-11T18:57:39.780Z,2.63
2023-09-11T19:00:08.414Z,3.60
2023-09-11T19:02:36.371Z,3.35
2023-09-11T19:05:04.520Z,2.55
2023-09-11T19:07:32.522Z,3.80
2023-09-11T19:10:00.457Z,3.95
2023-09-11T19:12:28.438Z,2.80
2023-09-11T19:14:56.446Z,2.70
2023-09-11T19:17:24.369Z,2.67
2023-09-11T19:19:52.374Z,23.05
2023-09-11T19:22:20.325Z,2.83
2023-09-11T19:24:48.239Z,2.80
2023-09-11T19:27:16.105Z,2.38
2023-09-11T19:29:44.514Z,3.00
2023-09-11T19:32:13.318Z,2.60
2023-09-11T19:34:41.446Z,2.45
2023-09-11T19:37:09.280Z,2.60
2023-09-11T19:39:38.872Z,2.72
2023-09-11T19:42:06.978Z,2.90
2023-09-11T19:44:34.954Z,2.58
2023-09-11T19:47:02.779Z,2.53
2023-09-11T19:49:30.664Z,2.30
2023-09-11T19:51:58.713Z,2.60
2023-09-11T19:54:26.798Z,2.75
2023-09-11T19:56:54.824Z,2.70
2023-09-11T19:59:22.851Z,2.95
2023-09-11T20:01:50.789Z,2.40
2023-09-11T20:04:18.872Z,2.10
2023-09-11T20:06:47.735Z,2.72
2023-09-11T20:09:15.748Z,2.72
2023-09-11T20:11:46.294Z,2.70
2023-09-11T20:14:16.907Z,2.63
2023-09-11T20:16:45.362Z,2.53
2023-09-11T20:19:16.506Z,2.60
2023-09-11T20:21:44.385Z,2.80
2023-09-11T20:24:12.363Z,2.65
2023-09-11T20:26:40.263Z,2.70
2023-09-11T20:29:08.051Z,2.88
2023-09-11T20:31:35.801Z,2.95
2023-09-11T20:34:03.546Z,2.97
2023-09-11T20:36:31.329Z,2.70
2023-09-11T20:38:58.937Z,3.10
2023-09-11T20:41:26.656Z,3.78
2023-09-11T20:43:54.469Z,3.80
2023-09-11T20:46:22.384Z,2.75
2023-09-11T20:48:52.054Z,3.03
2023-09-11T20:51:20.038Z,2.97
2023-09-11T20:53:48.514Z,2.67
2023-09-11T20:56:16.233Z,3.10
2023-09-11T20:58:44.519Z,2.88
2023-09-11T21:01:12.411Z,2.80
2023-09-11T21:03:40.208Z,2.87
2023-09-11T21:06:09.951Z,2.90
2023-09-11T21:08:37.900Z,3.38
2023-09-11T21:11:05.765Z,3.92
2023-09-11T21:13:33.604Z,3.00
2023-09-11T21:16:01.263Z,2.97
2023-09-11T21:18:28.920Z,3.30
2023-09-11T21:20:56.595Z,3.80
2023-09-11T21:23:26.421Z,3.42
2023-09-11T21:25:54.146Z,3.85
2023-09-11T21:28:21.882Z,4.00
2023-09-11T21:30:50.524Z,4.30
2023-09-11T21:33:18.292Z,4.30
2023-09-11T21:35:46.157Z,3.97
2023-09-11T21:38:13.738Z,4.65
2023-09-11T21:40:41.387Z,4.13
2023-09-11T21:43:09.152Z,4.20
2023-09-11T21:45:45.773Z,4.30
2023-09-11T21:48:13.557Z,4.53
2023-09-11T21:50:41.476Z,4.32
2023-09-11T21:53:09.169Z,4.53
2023-09-11T21:55:36.875Z,4.43
2023-09-11T21:58:04.622Z,4.43
2023-09-11T22:00:32.660Z,4.57
2023-09-11T22:03:00.667Z,4.63
2023-09-11T22:05:29.193Z,4.20
2023-09-11T22:07:58.296Z,4.55
2023-09-11T22:10:25.994Z,4.18
2023-09-11T22:12:53.741Z,5.20
2023-09-11T22:15:21.467Z,4.68
2023-09-11T22:17:49.215Z,4.13
2023-09-11T22:20:16.812Z,4.47
2023-09-11T22:22:44.408Z,4.78
2023-09-11T22:25:12.189Z,4.85
2023-09-11T22:27:40.133Z,4.78
2023-09-11T22:30:08.394Z,4.70
2023-09-11T22:32:49.117Z,4.72
2023-09-11T22:35:21.209Z,4.85
2023-09-11T22:37:48.817Z,4.35
2023-09-11T22:40:16.487Z,4.50
2023-09-11T22:42:44.187Z,4.10
2023-09-11T22:45:11.942Z,4.47
2023-09-11T22:47:40.993Z,4.15
2023-09-11T22:50:09.460Z,5.00
2023-09-11T22:52:38.990Z,4.93
2023-09-11T22:55:07.554Z,4.40
2023-09-11T22:57:35.253Z,4.82
2023-09-11T23:00:03.428Z,4.63
2023-09-11T23:02:34.332Z,4.80
2023-09-11T23:05:02.069Z,4.85
2023-09-11T23:07:32.246Z,4.70
2023-09-11T23:09:59.844Z,5.20
2023-09-11T23:12:27.735Z,4.78
2023-09-11T23:14:56.583Z,5.32
2023-09-11T23:17:24.445Z,5.50
2023-09-11T23:19:52.074Z,5.20
2023-09-11T23:22:19.743Z,5.38
2023-09-11T23:24:47.346Z,5.28
2023-09-11T23:27:15.089Z,4.95
2023-09-11T23:29:43.162Z,5.90
2023-09-11T23:32:10.845Z,5.43
2023-09-11T23:34:38.627Z,5.30
2023-09-11T23:37:06.250Z,5.32
2023-09-11T23:39:33.993Z,5.35
2023-09-11T23:42:01.762Z,5.13
2023-09-11T23:44:29.412Z,5.20
2023-09-11T23:46:57.110Z,5.05
2023-09-11T23:49:24.759Z,5.03
2023-09-11T23:51:52.340Z,5.30
2023-09-11T23:54:20.403Z,5.18
2023-09-11T23:56:48.050Z,4.87
2023-09-11T23:59:16.425Z,5.30
